sensor_id;sensor_type;location;lat;lon;timestamp;pressure;altitude;pressure_sealevel;temperature;humidity
71964;BME280;59834;52.124;5.422;2022-12-20T00:00:59;101325.34;;;8.54;92.00
71964;BME280;59834;52.124;5.422;2022-12-20T00:03:25;101317.38;;;8.57;91.66
71964;BME280;59834;52.124;5.422;2022-12-20T00:05:52;101315.47;;;8.61;91.69
71964;BME280;59834;52.124;5.422;2022-12-20T00:08:18;101311.03;;;8.63;91.88
71964;BME280;59834;52.124;5.422;2022-12-20T00:10:45;101317.94;;;8.64;91.61
71964;BME280;59834;52.124;5.422;2022-12-20T00:13:12;101310.81;;;8.67;91.59
71964;BME280;59834;52.124;5.422;2022-12-20T00:15:39;101318.44;;;8.72;90.93
71964;BME280;59834;52.124;5.422;2022-12-20T00:18:05;101318.22;;;8.77;91.11
71964;BME280;59834;52.124;5.422;2022-12-20T00:20:32;101314.63;;;8.79;91.33
71964;BME280;59834;52.124;5.422;2022-12-20T00:22:59;101324.91;;;8.82;90.67
71964;BME280;59834;52.124;5.422;2022-12-20T00:25:25;101321.38;;;8.83;90.67
71964;BME280;59834;52.124;5.422;2022-12-20T00:27:52;101325.75;;;8.83;90.03
71964;BME280;59834;52.124;5.422;2022-12-20T00:30:19;101316.00;;;8.86;90.07
71964;BME280;59834;52.124;5.422;2022-12-20T00:32:45;101308.06;;;8.88;89.84
71964;BME280;59834;52.124;5.422;2022-12-20T00:35:12;101316.75;;;8.88;90.71
71964;BME280;59834;52.124;5.422;2022-12-20T00:37:39;101317.63;;;8.89;90.45
71964;BME280;59834;52.124;5.422;2022-12-20T00:40:07;101317.38;;;8.93;89.63
71964;BME280;59834;52.124;5.422;2022-12-20T00:42:44;101312.00;;;8.96;89.80
71964;BME280;59834;52.124;5.422;2022-12-20T00:45:11;101306.78;;;8.96;90.05
71964;BME280;59834;52.124;5.422;2022-12-20T00:47:37;101306.78;;;8.96;89.92
71964;BME280;59834;52.124;5.422;2022-12-20T00:50:04;101299.56;;;9.02;89.32
71964;BME280;59834;52.124;5.422;2022-12-20T00:52:31;101304.50;;;9.08;88.77
71964;BME280;59834;52.124;5.422;2022-12-20T00:54:57;101309.72;;;9.08;89.29
71964;BME280;59834;52.124;5.422;2022-12-20T00:57:24;101306.09;;;9.10;88.43
71964;BME280;59834;52.124;5.422;2022-12-20T00:59:50;101311.44;;;9.09;89.09
71964;BME280;59834;52.124;5.422;2022-12-20T01:02:17;101306.19;;;9.09;89.18
71964;BME280;59834;52.124;5.422;2022-12-20T01:04:44;101297.59;;;9.07;89.37
71964;BME280;59834;52.124;5.422;2022-12-20T01:07:10;101304.50;;;9.08;89.22
71964;BME280;59834;52.124;5.422;2022-12-20T01:09:37;101307.88;;;9.10;88.44
71964;BME280;59834;52.124;5.422;2022-12-20T01:12:04;101314.09;;;9.07;89.25
71964;BME280;59834;52.124;5.422;2022-12-20T01:14:31;101308.81;;;9.09;89.64
71964;BME280;59834;52.124;5.422;2022-12-20T01:16:57;101306.19;;;9.09;89.08
71964;BME280;59834;52.124;5.422;2022-12-20T01:19:25;101309.81;;;9.06;90.03
71964;BME280;59834;52.124;5.422;2022-12-20T01:21:51;101315.88;;;9.07;90.37
71964;BME280;59834;52.124;5.422;2022-12-20T01:24:18;101299.41;;;9.05;91.08
71964;BME280;59834;52.124;5.422;2022-12-20T01:26:46;101309.16;;;9.01;91.23
71964;BME280;59834;52.124;5.422;2022-12-20T01:29:13;101317.84;;;9.02;91.46
71964;BME280;59834;52.124;5.422;2022-12-20T01:31:40;101305.72;;;9.01;92.24
71964;BME280;59834;52.124;5.422;2022-12-20T01:34:08;101310.34;;;8.95;93.25
71964;BME280;59834;52.124;5.422;2022-12-20T01:36:35;101301.09;;;8.88;95.03
71964;BME280;59834;52.124;5.422;2022-12-20T01:39:07;101305.75;;;8.82;95.65
71964;BME280;59834;52.124;5.422;2022-12-20T01:41:35;101302.53;;;8.77;96.97
71964;BME280;59834;52.124;5.422;2022-12-20T01:46:52;101287.28;;;8.69;99.04
71964;BME280;59834;52.124;5.422;2022-12-20T01:49:35;101290.16;;;8.63;99.17
71964;BME280;59834;52.124;5.422;2022-12-20T01:52:11;101283.41;;;8.59;100.00
71964;BME280;59834;52.124;5.422;2022-12-20T01:57:59;101286.44;;;8.49;100.00
71964;BME280;59834;52.124;5.422;2022-12-20T02:00:27;101276.16;;;8.46;100.00
71964;BME280;59834;52.124;5.422;2022-12-20T02:02:58;101278.78;;;8.46;100.00
71964;BME280;59834;52.124;5.422;2022-12-20T02:05:26;101275.47;;;8.43;100.00
71964;BME280;59834;52.124;5.422;2022-12-20T02:07:54;101270.31;;;8.41;100.00
71964;BME280;59834;52.124;5.422;2022-12-20T02:10:23;101270.44;;;8.38;100.00
71964;BME280;59834;52.124;5.422;2022-12-20T02:13:01;101268.72;;;8.39;100.00
71964;BME280;59834;52.124;5.422;2022-12-20T02:15:40;101269.56;;;8.39;100.00
71964;BME280;59834;52.124;5.422;2022-12-20T02:18:30;101253.97;;;8.38;100.00
71964;BME280;59834;52.124;5.422;2022-12-20T02:29:36;101258.38;;;8.36;100.00
71964;BME280;59834;52.124;5.422;2022-12-20T02:32:17;101261.78;;;8.38;100.00
71964;BME280;59834;52.124;5.422;2022-12-20T02:34:45;101260.91;;;8.37;100.00
71964;BME280;59834;52.124;5.422;2022-12-20T02:37:12;101257.53;;;8.35;100.00
71964;BME280;59834;52.124;5.422;2022-12-20T02:39:40;101254.94;;;8.35;100.00
71964;BME280;59834;52.124;5.422;2022-12-20T02:42:20;101249.63;;;8.37;100.00
71964;BME280;59834;52.124;5.422;2022-12-20T02:45:00;101244.41;;;8.37;100.00
71964;BME280;59834;52.124;5.422;2022-12-20T02:47:53;101235.91;;;8.33;100.00
71964;BME280;59834;52.124;5.422;2022-12-20T02:50:35;101240.19;;;8.34;100.00
71964;BME280;59834;52.124;5.422;2022-12-20T02:53:02;101247.13;;;8.35;100.00
71964;BME280;59834;52.124;5.422;2022-12-20T02:55:40;101239.34;;;8.34;100.00
71964;BME280;59834;52.124;5.422;2022-12-20T02:58:28;101241.19;;;8.32;100.00
71964;BME280;59834;52.124;5.422;2022-12-20T03:00:58;101236.97;;;8.29;100.00
71964;BME280;59834;52.124;5.422;2022-12-20T03:03:32;101228.34;;;8.27;100.00
71964;BME280;59834;52.124;5.422;2022-12-20T03:05:59;101242.31;;;8.26;100.00
71964;BME280;59834;52.124;5.422;2022-12-20T03:08:25;101245.84;;;8.25;100.00
71964;BME280;59834;52.124;5.422;2022-12-20T03:10:53;101234.50;;;8.26;100.00
71964;BME280;59834;52.124;5.422;2022-12-20T03:13:21;101218.06;;;8.24;100.00
71964;BME280;59834;52.124;5.422;2022-12-20T03:15:48;101231.09;;;8.24;100.00
71964;BME280;59834;52.124;5.422;2022-12-20T03:18:15;101242.47;;;8.23;100.00
71964;BME280;59834;52.124;5.422;2022-12-20T03:20:42;101232.03;;;8.23;100.00
71964;BME280;59834;52.124;5.422;2022-12-20T03:23:08;101239.63;;;8.27;100.00
71964;BME280;59834;52.124;5.422;2022-12-20T03:25:35;101226.59;;;8.27;100.00
71964;BME280;59834;52.124;5.422;2022-12-20T03:28:02;101217.00;;;8.28;100.00
71964;BME280;59834;52.124;5.422;2022-12-20T03:30:28;101224.69;;;8.31;100.00
71964;BME280;59834;52.124;5.422;2022-12-20T03:32:55;101231.75;;;8.29;100.00
71964;BME280;59834;52.124;5.422;2022-12-20T03:35:22;101219.59;;;8.28;100.00
71964;BME280;59834;52.124;5.422;2022-12-20T03:37:48;101228.22;;;8.30;100.00
71964;BME280;59834;52.124;5.422;2022-12-20T03:40:15;101230.53;;;8.36;100.00
71964;BME280;59834;52.124;5.422;2022-12-20T03:42:41;101210.44;;;8.38;100.00
71964;BME280;59834;52.124;5.422;2022-12-20T03:45:09;101221.44;;;8.45;100.00
71964;BME280;59834;52.124;5.422;2022-12-20T03:47:35;101210.94;;;8.46;100.00
71964;BME280;59834;52.124;5.422;2022-12-20T03:50:03;101210.94;;;8.46;100.00
71964;BME280;59834;52.124;5.422;2022-12-20T03:52:29;101219.75;;;8.44;100.00
71964;BME280;59834;52.124;5.422;2022-12-20T03:54:56;101216.31;;;8.43;100.00
71964;BME280;59834;52.124;5.422;2022-12-20T03:57:22;101209.19;;;8.47;100.00
71964;BME280;59834;52.124;5.422;2022-12-20T03:59:49;101208.09;;;8.51;100.00
71964;BME280;59834;52.124;5.422;2022-12-20T04:02:15;101207.19;;;8.52;100.00
71964;BME280;59834;52.124;5.422;2022-12-20T04:04:42;101196.78;;;8.52;100.00
71964;BME280;59834;52.124;5.422;2022-12-20T04:07:09;101187.09;;;8.54;100.00
71964;BME280;59834;52.124;5.422;2022-12-20T04:09:35;101196.44;;;8.58;100.00
71964;BME280;59834;52.124;5.422;2022-12-20T04:12:02;101184.13;;;8.62;100.00
71964;BME280;59834;52.124;5.422;2022-12-20T04:14:29;101176.09;;;8.65;100.00
71964;BME280;59834;52.124;5.422;2022-12-20T04:16:56;101179.34;;;8.70;100.00
71964;BME280;59834;52.124;5.422;2022-12-20T04:19:23;101187.03;;;8.73;100.00
71964;BME280;59834;52.124;5.422;2022-12-20T04:21:50;101177.28;;;8.77;100.00
71964;BME280;59834;52.124;5.422;2022-12-20T04:24:16;101179.47;;;8.84;100.00
71964;BME280;59834;52.124;5.422;2022-12-20T04:26:43;101172.28;;;8.89;100.00
71964;BME280;59834;52.124;5.422;2022-12-20T04:29:09;101173.03;;;8.91;100.00
71964;BME280;59834;52.124;5.422;2022-12-20T04:31:36;101170.56;;;8.88;100.00
71964;BME280;59834;52.124;5.422;2022-12-20T04:34:03;101165.28;;;8.90;100.00
71964;BME280;59834;52.124;5.422;2022-12-20T04:36:29;101164.13;;;8.95;100.00
71964;BME280;59834;52.124;5.422;2022-12-20T04:38:56;101164.03;;;8.97;100.00
71964;BME280;59834;52.124;5.422;2022-12-20T04:41:22;101162.13;;;9.01;99.94
71964;BME280;59834;52.124;5.422;2022-12-20T04:43:56;101169.00;;;9.02;99.64
71964;BME280;59834;52.124;5.422;2022-12-20T04:46:24;101179.16;;;9.08;99.56
71964;BME280;59834;52.124;5.422;2022-12-20T04:48:51;101172.25;;;9.07;99.77
71964;BME280;59834;52.124;5.422;2022-12-20T04:51:25;101172.25;;;9.07;100.00
71964;BME280;59834;52.124;5.422;2022-12-20T04:53:52;101178.84;;;9.14;99.77
71964;BME280;59834;52.124;5.422;2022-12-20T04:56:21;101172.53;;;9.18;99.82
71964;BME280;59834;52.124;5.422;2022-12-20T04:58:50;101169.91;;;9.18;100.00
71964;BME280;59834;52.124;5.422;2022-12-20T05:01:18;101147.44;;;9.15;100.00
71964;BME280;59834;52.124;5.422;2022-12-20T05:03:45;101161.72;;;9.08;100.00
71964;BME280;59834;52.124;5.422;2022-12-20T05:06:12;101160.44;;;9.00;100.00
71964;BME280;59834;52.124;5.422;2022-12-20T05:08:39;101162.44;;;8.94;100.00
71964;BME280;59834;52.124;5.422;2022-12-20T05:11:06;101151.97;;;8.94;100.00
71964;BME280;59834;52.124;5.422;2022-12-20T05:13:33;101158.91;;;8.95;100.00
71964;BME280;59834;52.124;5.422;2022-12-20T05:16:00;101156.31;;;8.95;100.00
71964;BME280;59834;52.124;5.422;2022-12-20T05:18:26;101157.22;;;8.94;100.00
71964;BME280;59834;52.124;5.422;2022-12-20T05:20:55;101150.06;;;8.98;100.00
71964;BME280;59834;52.124;5.422;2022-12-20T05:23:41;101149.16;;;8.99;100.00
71964;BME280;59834;52.124;5.422;2022-12-20T05:26:29;101141.38;;;8.97;100.00
71964;BME280;59834;52.124;5.422;2022-12-20T05:28:56;101139.72;;;8.96;100.00
71964;BME280;59834;52.124;5.422;2022-12-20T05:31:23;101131.03;;;8.96;100.00
71964;BME280;59834;52.124;5.422;2022-12-20T05:33:50;101124.88;;;8.97;100.00
71964;BME280;59834;52.124;5.422;2022-12-20T05:36:16;101131.88;;;8.96;100.00
71964;BME280;59834;52.124;5.422;2022-12-20T05:38:46;101124.03;;;8.96;100.00
71964;BME280;59834;52.124;5.422;2022-12-20T05:41:12;101117.72;;;9.01;100.00
71964;BME280;59834;52.124;5.422;2022-12-20T05:43:39;101121.13;;;9.03;100.00
71964;BME280;59834;52.124;5.422;2022-12-20T05:46:08;101124.47;;;9.05;100.00
71964;BME280;59834;52.124;5.422;2022-12-20T05:48:36;101120.03;;;9.07;100.00
71964;BME280;59834;52.124;5.422;2022-12-20T05:51:03;101102.53;;;9.09;100.00
71964;BME280;59834;52.124;5.422;2022-12-20T05:53:30;101111.19;;;9.09;100.00
71964;BME280;59834;52.124;5.422;2022-12-20T05:55:57;101116.41;;;9.09;100.00
71964;BME280;59834;52.124;5.422;2022-12-20T05:58:24;101103.25;;;9.11;100.00
71964;BME280;59834;52.124;5.422;2022-12-20T06:00:51;101098.88;;;9.11;100.00
71964;BME280;59834;52.124;5.422;2022-12-20T06:03:18;101090.31;;;9.09;100.00
71964;BME280;59834;52.124;5.422;2022-12-20T06:05:45;101082.53;;;9.08;100.00
71964;BME280;59834;52.124;5.422;2022-12-20T06:08:12;101079.91;;;9.08;100.00
71964;BME280;59834;52.124;5.422;2022-12-20T06:10:40;101064.25;;;9.08;100.00
71964;BME280;59834;52.124;5.422;2022-12-20T06:13:08;101052.81;;;9.10;100.00
71964;BME280;59834;52.124;5.422;2022-12-20T06:15:35;101052.72;;;9.12;100.00
71964;BME280;59834;52.124;5.422;2022-12-20T06:18:02;101073.44;;;9.15;100.00
71964;BME280;59834;52.124;5.422;2022-12-20T06:20:33;101065.53;;;9.16;100.00
71964;BME280;59834;52.124;5.422;2022-12-20T06:23:01;101077.59;;;9.19;100.00
71964;BME280;59834;52.124;5.422;2022-12-20T06:25:28;101068.84;;;9.20;100.00
71964;BME280;59834;52.124;5.422;2022-12-20T06:27:57;101080.94;;;9.21;100.00
71964;BME280;59834;52.124;5.422;2022-12-20T06:30:24;101078.19;;;9.24;100.00
71964;BME280;59834;52.124;5.422;2022-12-20T06:32:58;101080.63;;;9.27;100.00
71964;BME280;59834;52.124;5.422;2022-12-20T06:35:25;101086.78;;;9.26;100.00
71964;BME280;59834;52.124;5.422;2022-12-20T06:37:52;101084.19;;;9.26;100.00
71964;BME280;59834;52.124;5.422;2022-12-20T06:40:18;101087.53;;;9.28;100.00
71964;BME280;59834;52.124;5.422;2022-12-20T06:42:45;101082.97;;;9.32;100.00
71964;BME280;59834;52.124;5.422;2022-12-20T06:45:12;101083.75;;;9.34;100.00
71964;BME280;59834;52.124;5.422;2022-12-20T06:47:38;101084.53;;;9.36;100.00
71964;BME280;59834;52.124;5.422;2022-12-20T06:50:06;101079.47;;;9.33;100.00
71964;BME280;59834;52.124;5.422;2022-12-20T06:52:33;101073.56;;;9.29;100.00
71964;BME280;59834;52.124;5.422;2022-12-20T06:55:00;101085.00;;;9.27;100.00
71964;BME280;59834;52.124;5.422;2022-12-20T06:57:26;101082.31;;;9.28;100.00
71964;BME280;59834;52.124;5.422;2022-12-20T06:59:53;101076.25;;;9.28;100.00
71964;BME280;59834;52.124;5.422;2022-12-20T07:02:19;101086.69;;;9.28;100.00
71964;BME280;59834;52.124;5.422;2022-12-20T07:04:47;101083.84;;;9.32;99.73
71964;BME280;59834;52.124;5.422;2022-12-20T07:07:14;101071.69;;;9.31;99.37
71964;BME280;59834;52.124;5.422;2022-12-20T07:09:40;101075.81;;;9.35;99.52
71964;BME280;59834;52.124;5.422;2022-12-20T07:12:08;101079.97;;;9.39;98.86
71964;BME280;59834;52.124;5.422;2022-12-20T07:14:35;101076.16;;;9.45;98.78
71964;BME280;59834;52.124;5.422;2022-12-20T07:17:03;101089.56;;;9.55;97.83
71964;BME280;59834;52.124;5.422;2022-12-20T07:19:30;101076.50;;;9.55;97.48
71964;BME280;59834;52.124;5.422;2022-12-20T07:21:57;101078.94;;;9.58;97.12
71964;BME280;59834;52.124;5.422;2022-12-20T07:24:24;101076.16;;;9.61;96.65
71964;BME280;59834;52.124;5.422;2022-12-20T07:26:51;101075.22;;;9.62;95.52
71964;BME280;59834;52.124;5.422;2022-12-20T07:29:18;101076.94;;;9.63;95.81
71964;BME280;59834;52.124;5.422;2022-12-20T07:31:44;101079.53;;;9.63;95.24
71964;BME280;59834;52.124;5.422;2022-12-20T07:34:11;101073.22;;;9.67;94.73
71964;BME280;59834;52.124;5.422;2022-12-20T07:36:38;101079.00;;;9.72;94.38
71964;BME280;59834;52.124;5.422;2022-12-20T07:39:05;101083.16;;;9.76;94.09
71964;BME280;59834;52.124;5.422;2022-12-20T07:41:31;101077.94;;;9.76;93.79
71964;BME280;59834;52.124;5.422;2022-12-20T07:43:58;101087.63;;;9.74;94.37
71964;BME280;59834;52.124;5.422;2022-12-20T07:46:25;101084.06;;;9.75;93.61
71964;BME280;59834;52.124;5.422;2022-12-20T07:48:53;101087.44;;;9.77;93.93
71964;BME280;59834;52.124;5.422;2022-12-20T07:51:23;101090.22;;;9.74;94.34
71964;BME280;59834;52.124;5.422;2022-12-20T07:53:54;101087.63;;;9.74;94.37
71964;BME280;59834;52.124;5.422;2022-12-20T07:56:25;101093.78;;;9.73;95.13
71964;BME280;59834;52.124;5.422;2022-12-20T07:58:54;101099.09;;;9.72;95.47
71964;BME280;59834;52.124;5.422;2022-12-20T08:01:25;101101.03;;;9.68;95.76
71964;BME280;59834;52.124;5.422;2022-12-20T08:03:58;101108.13;;;9.66;96.15
71964;BME280;59834;52.124;5.422;2022-12-20T08:06:27;101101.19;;;9.65;96.34
71964;BME280;59834;52.124;5.422;2022-12-20T08:08:58;101100.34;;;9.64;95.84
71964;BME280;59834;52.124;5.422;2022-12-20T08:11:26;101090.91;;;9.62;96.00
71964;BME280;59834;52.124;5.422;2022-12-20T08:13:54;101085.50;;;9.65;95.35
71964;BME280;59834;52.124;5.422;2022-12-20T08:16:24;101088.72;;;9.70;95.12
71964;BME280;59834;52.124;5.422;2022-12-20T08:18:51;101085.28;;;9.70;95.29
71964;BME280;59834;52.124;5.422;2022-12-20T08:21:17;101098.50;;;9.66;94.88
71964;BME280;59834;52.124;5.422;2022-12-20T08:23:44;101086.13;;;9.70;94.94
71964;BME280;59834;52.124;5.422;2022-12-20T08:26:10;101085.34;;;9.68;95.19
71964;BME280;59834;52.124;5.422;2022-12-20T08:28:37;101079.38;;;9.66;94.87
71964;BME280;59834;52.124;5.422;2022-12-20T08:31:06;101080.13;;;9.68;94.88
71964;BME280;59834;52.124;5.422;2022-12-20T08:33:36;101082.84;;;9.66;94.90
71964;BME280;59834;52.124;5.422;2022-12-20T08:36:06;101077.00;;;9.61;95.69
71964;BME280;59834;52.124;5.422;2022-12-20T08:38:36;101082.22;;;9.61;95.62
71964;BME280;59834;52.124;5.422;2022-12-20T08:41:05;101085.69;;;9.62;95.07
71964;BME280;59834;52.124;5.422;2022-12-20T08:43:32;101078.63;;;9.64;95.38
71964;BME280;59834;52.124;5.422;2022-12-20T08:45:59;101076.84;;;9.64;94.98
71964;BME280;59834;52.124;5.422;2022-12-20T08:48:27;101078.63;;;9.64;94.34
71964;BME280;59834;52.124;5.422;2022-12-20T08:50:59;101079.38;;;9.66;94.82
71964;BME280;59834;52.124;5.422;2022-12-20T08:53:27;101081.13;;;9.65;95.10
71964;BME280;59834;52.124;5.422;2022-12-20T08:56:12;101076.00;;;9.64;94.54
71964;BME280;59834;52.124;5.422;2022-12-20T08:58:39;101076.75;;;9.66;94.93
71964;BME280;59834;52.124;5.422;2022-12-20T09:01:08;101094.56;;;9.59;96.12
71964;BME280;59834;52.124;5.422;2022-12-20T09:03:36;101090.56;;;9.52;96.71
71964;BME280;59834;52.124;5.422;2022-12-20T09:06:05;101088.16;;;9.49;97.42
71964;BME280;59834;52.124;5.422;2022-12-20T09:08:34;101084.84;;;9.45;98.16
71964;BME280;59834;52.124;5.422;2022-12-20T09:11:13;101086.88;;;9.40;99.29
71964;BME280;59834;52.124;5.422;2022-12-20T09:13:42;101084.53;;;9.36;99.69
71964;BME280;59834;52.124;5.422;2022-12-20T09:16:12;101081.97;;;9.34;100.00
71964;BME280;59834;52.124;5.422;2022-12-20T09:18:40;101083.84;;;9.32;100.00
71964;BME280;59834;52.124;5.422;2022-12-20T09:21:07;101078.63;;;9.32;100.00
71964;BME280;59834;52.124;5.422;2022-12-20T09:23:35;101084.00;;;9.29;100.00
71964;BME280;59834;52.124;5.422;2022-12-20T09:26:08;101084.91;;;9.28;100.00
71964;BME280;59834;52.124;5.422;2022-12-20T09:28:36;101082.31;;;9.28;100.00
71964;BME280;59834;52.124;5.422;2022-12-20T09:31:05;101078.78;;;9.29;100.00
71964;BME280;59834;52.124;5.422;2022-12-20T09:33:32;101081.47;;;9.28;100.00
71964;BME280;59834;52.124;5.422;2022-12-20T09:36:01;101079.84;;;9.25;100.00
71964;BME280;59834;52.124;5.422;2022-12-20T09:38:29;101086.13;;;9.23;100.00
71964;BME280;59834;52.124;5.422;2022-12-20T09:41:14;101084.50;;;9.20;100.00
71964;BME280;59834;52.124;5.422;2022-12-20T09:43:59;101093.28;;;9.19;100.00
71964;BME280;59834;52.124;5.422;2022-12-20T09:46:29;101092.41;;;9.18;100.00
71964;BME280;59834;52.124;5.422;2022-12-20T09:48:56;101095.94;;;9.17;100.00
71964;BME280;59834;52.124;5.422;2022-12-20T09:51:41;101098.66;;;9.16;100.00
71964;BME280;59834;52.124;5.422;2022-12-20T09:54:54;101093.50;;;9.14;100.00
71964;BME280;59834;52.124;5.422;2022-12-20T10:00:16;101090.22;;;9.11;100.00
71964;BME280;59834;52.124;5.422;2022-12-20T10:02:42;101098.97;;;9.10;100.00
71964;BME280;59834;52.124;5.422;2022-12-20T10:05:34;101098.19;;;9.08;100.00
71964;BME280;59834;52.124;5.422;2022-12-20T10:11:10;101089.53;;;9.07;100.00
71964;BME280;59834;52.124;5.422;2022-12-20T10:14:07;101090.38;;;9.08;100.00
71964;BME280;59834;52.124;5.422;2022-12-20T10:16:46;101086.84;;;9.09;100.00
71964;BME280;59834;52.124;5.422;2022-12-20T10:19:35;101090.22;;;9.11;100.00
71964;BME280;59834;52.124;5.422;2022-12-20T10:25:30;101076.16;;;9.13;100.00
71964;BME280;59834;52.124;5.422;2022-12-20T10:28:00;101070.84;;;9.15;100.00
71964;BME280;59834;52.124;5.422;2022-12-20T10:30:32;101078.59;;;9.16;100.00
71964;BME280;59834;52.124;5.422;2022-12-20T10:32:58;101070.66;;;9.18;100.00
71964;BME280;59834;52.124;5.422;2022-12-20T10:35:36;101078.34;;;9.21;100.00
71964;BME280;59834;52.124;5.422;2022-12-20T10:38:05;101079.97;;;9.24;100.00
71964;BME280;59834;52.124;5.422;2022-12-20T10:40:40;101078.94;;;9.26;100.00
71964;BME280;59834;52.124;5.422;2022-12-20T10:43:27;101075.41;;;9.27;100.00
71964;BME280;59834;52.124;5.422;2022-12-20T10:46:06;101061.56;;;9.25;100.00
71964;BME280;59834;52.124;5.422;2022-12-20T10:48:36;101072.03;;;9.25;100.00
71964;BME280;59834;52.124;5.422;2022-12-20T10:51:13;101061.56;;;9.25;100.00
71964;BME280;59834;52.124;5.422;2022-12-20T10:56:27;101063.28;;;9.26;100.00
71964;BME280;59834;52.124;5.422;2022-12-20T11:01:49;101052.84;;;9.26;100.00
71964;BME280;59834;52.124;5.422;2022-12-20T11:04:31;101042.22;;;9.29;100.00
71964;BME280;59834;52.124;5.422;2022-12-20T11:09:57;101046.56;;;9.29;100.00
71964;BME280;59834;52.124;5.422;2022-12-20T11:12:24;101034.38;;;9.29;100.00
71964;BME280;59834;52.124;5.422;2022-12-20T11:15:09;101046.69;;;9.27;100.00
71964;BME280;59834;52.124;5.422;2022-12-20T11:17:42;101039.50;;;9.31;100.00
71964;BME280;59834;52.124;5.422;2022-12-20T11:20:27;101035.13;;;9.31;100.00
71964;BME280;59834;52.124;5.422;2022-12-20T11:23:36;101030.75;;;9.32;100.00
71964;BME280;59834;52.124;5.422;2022-12-20T11:29:20;101032.44;;;9.33;100.00
71964;BME280;59834;52.124;5.422;2022-12-20T11:32:07;101039.34;;;9.34;100.00
71964;BME280;59834;52.124;5.422;2022-12-20T11:43:33;101028.72;;;9.37;100.00
71964;BME280;59834;52.124;5.422;2022-12-20T11:51:48;101024.34;;;9.37;100.00
71964;BME280;59834;52.124;5.422;2022-12-20T11:54:25;101015.56;;;9.38;100.00
71964;BME280;59834;52.124;5.422;2022-12-20T11:56:59;101025.28;;;9.36;100.00
71964;BME280;59834;52.124;5.422;2022-12-20T12:02:14;101023.50;;;9.37;100.00
71964;BME280;59834;52.124;5.422;2022-12-20T12:04:49;101022.66;;;9.36;100.00
71964;BME280;59834;52.124;5.422;2022-12-20T12:07:20;101019.28;;;9.34;100.00
71964;BME280;59834;52.124;5.422;2022-12-20T12:10:02;101015.72;;;9.35;100.00
71964;BME280;59834;52.124;5.422;2022-12-20T12:12:39;101013.06;;;9.37;100.00
71964;BME280;59834;52.124;5.422;2022-12-20T12:28:58;101002.00;;;9.48;100.00
71964;BME280;59834;52.124;5.422;2022-12-20T12:31:42;100996.59;;;9.51;100.00
71964;BME280;59834;52.124;5.422;2022-12-20T12:37:30;101005.56;;;9.47;100.00
71964;BME280;59834;52.124;5.422;2022-12-20T12:42:42;101011.69;;;9.45;100.00
71964;BME280;59834;52.124;5.422;2022-12-20T12:47:52;101005.44;;;9.48;100.00
71964;BME280;59834;52.124;5.422;2022-12-20T12:50:22;101001.06;;;9.49;100.00
71964;BME280;59834;52.124;5.422;2022-12-20T12:52:52;101004.53;;;9.49;100.00
71964;BME280;59834;52.124;5.422;2022-12-20T12:55:39;101008.91;;;9.49;100.00
71964;BME280;59834;52.124;5.422;2022-12-20T13:01:01;101016.75;;;9.49;100.00
71964;BME280;59834;52.124;5.422;2022-12-20T13:04:08;101015.06;;;9.48;100.00
71964;BME280;59834;52.124;5.422;2022-12-20T13:11:37;101010.59;;;9.50;100.00
71964;BME280;59834;52.124;5.422;2022-12-20T13:16:52;101008.00;;;9.50;100.00
71964;BME280;59834;52.124;5.422;2022-12-20T13:19:48;101008.91;;;9.49;100.00
71964;BME280;59834;52.124;5.422;2022-12-20T13:27:28;101005.44;;;9.48;100.00
71964;BME280;59834;52.124;5.422;2022-12-20T13:32:55;101004.59;;;9.48;100.00
71964;BME280;59834;52.124;5.422;2022-12-20T13:40:45;101005.56;;;9.47;100.00
71964;BME280;59834;52.124;5.422;2022-12-20T13:45:50;101009.84;;;9.48;100.00
71964;BME280;59834;52.124;5.422;2022-12-20T13:48:24;101006.38;;;9.47;100.00
71964;BME280;59834;52.124;5.422;2022-12-20T13:50:56;101002.00;;;9.48;100.00
71964;BME280;59834;52.124;5.422;2022-12-20T13:53:29;100997.53;;;9.50;100.00
71964;BME280;59834;52.124;5.422;2022-12-20T13:55:57;101002.78;;;9.50;100.00
71964;BME280;59834;52.124;5.422;2022-12-20T13:58:26;100994.94;;;9.50;100.00
71964;BME280;59834;52.124;5.422;2022-12-20T14:01:03;101001.00;;;9.50;100.00
71964;BME280;59834;52.124;5.422;2022-12-20T14:03:39;100999.22;;;9.51;100.00
71964;BME280;59834;52.124;5.422;2022-12-20T14:06:10;101003.69;;;9.49;100.00
71964;BME280;59834;52.124;5.422;2022-12-20T14:08:44;101001.94;;;9.49;100.00
71964;BME280;59834;52.124;5.422;2022-12-20T14:11:26;100999.38;;;9.48;100.00
71964;BME280;59834;52.124;5.422;2022-12-20T14:14:01;101001.06;;;9.49;100.00
71964;BME280;59834;52.124;5.422;2022-12-20T14:16:30;100998.38;;;9.50;100.00
71964;BME280;59834;52.124;5.422;2022-12-20T14:19:05;100994.00;;;9.51;100.00
71964;BME280;59834;52.124;5.422;2022-12-20T14:21:41;100991.38;;;9.51;100.00
71964;BME280;59834;52.124;5.422;2022-12-20T14:24:17;101002.59;;;9.53;100.00
71964;BME280;59834;52.124;5.422;2022-12-20T14:26:51;100998.28;;;9.52;100.00
71964;BME280;59834;52.124;5.422;2022-12-20T14:29:27;100996.59;;;9.51;100.00
71964;BME280;59834;52.124;5.422;2022-12-20T14:31:55;101009.66;;;9.51;100.00
71964;BME280;59834;52.124;5.422;2022-12-20T14:34:28;101010.59;;;9.50;100.00
71964;BME280;59834;52.124;5.422;2022-12-20T14:42:39;101019.34;;;9.49;100.00
71964;BME280;59834;52.124;5.422;2022-12-20T14:47:36;100992.50;;;9.47;100.00
71964;BME280;59834;52.124;5.422;2022-12-20T14:50:12;101003.84;;;9.45;100.00
71964;BME280;59834;52.124;5.422;2022-12-20T14:52:43;100984.72;;;9.45;100.00
71964;BME280;59834;52.124;5.422;2022-12-20T14:55:22;100982.94;;;9.45;100.00
71964;BME280;59834;52.124;5.422;2022-12-20T14:57:54;100975.19;;;9.44;100.00
71964;BME280;59834;52.124;5.422;2022-12-20T15:00:24;100971.75;;;9.43;100.00